createdAt,value
2019-02-05T00:00:45.795Z,14.67
2019-02-05T00:03:21.228Z,11.27
2019-02-05T01:02:32.336Z,6.73
2019-02-05T01:05:02.905Z,6.40
2019-02-05T01:10:29.049Z,4.77
2019-02-05T01:13:00.317Z,5.27
2019-02-05T01:15:32.941Z,4.70
2019-02-05T01:18:04.937Z,5.07
2019-02-05T01:20:35.456Z,4.70
2019-02-05T01:23:05.929Z,6.63
2019-02-05T01:25:36.572Z,5.60
2019-02-05T01:31:08.087Z,39.43
2019-02-05T01:33:38.190Z,34.43
2019-02-05T01:36:08.559Z,25.83
2019-02-05T02:06:02.411Z,5.60
2019-02-05T02:08:33.299Z,5.90
2019-02-05T03:33:32.186Z,6.77
2019-02-05T03:39:35.624Z,6.13
2019-02-05T03:58:38.652Z,6.47
2019-02-05T04:01:24.951Z,5.57
2019-02-05T04:04:06.833Z,4.87
2019-02-05T04:06:51.920Z,5.37
2019-02-05T04:48:52.109Z,5.43
2019-02-05T05:01:51.802Z,5.03
2019-02-05T05:04:33.536Z,5.70
2019-02-05T05:07:24.526Z,5.03
2019-02-05T05:09:58.683Z,4.90
2019-02-05T05:12:28.969Z,5.13
2019-02-05T05:14:59.281Z,4.80
2019-02-05T05:41:47.307Z,25.80
2019-02-05T05:44:21.438Z,14.93
2019-02-05T05:46:51.842Z,5.87
2019-02-05T05:49:22.680Z,5.20
2019-02-05T05:51:52.710Z,4.23
2019-02-05T05:54:23.996Z,4.97
2019-02-05T05:56:54.137Z,4.90
2019-02-05T05:59:24.241Z,4.63
2019-02-05T06:01:54.333Z,4.63
2019-02-05T06:04:25.134Z,4.50
2019-02-05T06:06:55.150Z,4.30
2019-02-05T06:09:25.229Z,5.13
2019-02-05T06:11:55.322Z,4.30
2019-02-05T06:14:25.452Z,5.13
2019-02-05T06:17:13.755Z,4.60
2019-02-05T06:19:56.063Z,5.00
2019-02-05T06:22:26.163Z,4.57
2019-02-05T06:24:56.193Z,5.53
2019-02-05T06:27:26.280Z,6.40
2019-02-05T06:29:56.322Z,5.57
2019-02-05T06:32:26.413Z,5.47
2019-02-05T06:34:56.531Z,5.30
2019-02-05T06:37:26.637Z,5.37
2019-02-05T06:39:56.630Z,5.10
2019-02-05T06:42:26.751Z,3.87
2019-02-05T06:44:56.841Z,5.33
2019-02-05T06:47:26.949Z,4.67
2019-02-05T06:49:57.030Z,4.23
2019-02-05T06:52:27.049Z,4.73
2019-02-05T06:54:57.175Z,4.60
2019-02-05T06:57:27.300Z,4.60
2019-02-05T06:59:57.227Z,4.33
2019-02-05T07:02:27.441Z,4.67
2019-02-05T07:04:57.462Z,5.40
2019-02-05T07:07:27.490Z,4.97
2019-02-05T07:09:57.677Z,5.17
2019-02-05T07:12:27.701Z,5.57
2019-02-05T07:14:57.791Z,5.47
2019-02-05T07:17:27.821Z,4.80
2019-02-05T07:19:57.931Z,4.47
2019-02-05T07:22:27.951Z,4.37
2019-02-05T07:24:58.037Z,5.33
2019-02-05T07:27:28.056Z,5.57
2019-02-05T07:29:58.139Z,5.63
2019-02-05T07:32:28.171Z,6.97
2019-02-05T07:34:58.240Z,6.73
2019-02-05T07:37:38.979Z,5.60
2019-02-05T07:40:19.132Z,5.63
2019-02-05T07:42:49.654Z,5.87
2019-02-05T07:45:21.839Z,6.43
2019-02-05T07:57:30.844Z,5.87
2019-02-05T08:12:50.124Z,6.80
2019-02-05T08:15:32.116Z,7.90
2019-02-05T08:18:02.595Z,6.87
2019-02-05T08:20:32.892Z,8.00
2019-02-05T08:23:03.182Z,8.73
2019-02-05T08:25:53.245Z,7.97
2019-02-05T08:28:24.094Z,8.57
2019-02-05T08:30:55.215Z,6.07
2019-02-05T08:33:25.454Z,5.73
2019-02-05T08:35:57.868Z,5.57
2019-02-05T08:38:30.288Z,5.77
2019-02-05T08:41:02.097Z,5.97
2019-02-05T08:49:19.865Z,6.37
2019-02-05T08:51:50.454Z,7.70
2019-02-05T08:54:20.645Z,8.93
2019-02-05T08:56:50.855Z,8.38
2019-02-05T08:59:21.171Z,8.65
2019-02-05T09:01:51.257Z,10.70
2019-02-05T09:04:22.682Z,9.15
2019-02-05T09:06:53.535Z,9.30
2019-02-05T09:09:32.597Z,10.32
2019-02-05T09:15:28.886Z,11.50
2019-02-05T09:17:50.485Z,12.03
2019-02-05T09:20:22.376Z,12.58
2019-02-05T09:22:53.703Z,14.47
2019-02-05T09:25:23.933Z,13.68
2019-02-05T09:27:54.120Z,14.38
2019-02-05T09:30:29.719Z,14.73
2019-02-05T09:33:02.405Z,14.03
2019-02-05T09:35:32.736Z,13.83
2019-02-05T09:38:02.926Z,15.25
2019-02-05T09:40:34.334Z,15.00
2019-02-05T09:43:05.157Z,15.30
2019-02-05T09:45:35.888Z,15.28
2019-02-05T09:48:06.078Z,14.85
2019-02-05T09:50:44.201Z,18.75
2019-02-05T09:53:07.844Z,16.62
2019-02-05T09:55:37.938Z,13.80
2019-02-05T09:58:07.956Z,13.62
2019-02-05T10:00:41.253Z,13.60
2019-02-05T10:03:11.349Z,13.45
2019-02-05T10:05:41.432Z,12.80
2019-02-05T10:08:11.490Z,14.65
2019-02-05T10:10:41.507Z,17.10
2019-02-05T10:13:11.703Z,15.93
2019-02-05T10:15:43.445Z,15.63
2019-02-05T10:18:14.531Z,16.00
2019-02-05T10:20:44.717Z,14.78
2019-02-05T10:23:14.736Z,14.43
2019-02-05T10:25:44.837Z,14.35
2019-02-05T10:28:14.852Z,23.52
2019-02-05T10:30:46.060Z,20.68
2019-02-05T10:33:16.342Z,19.40
2019-02-05T10:35:46.739Z,31.05
2019-02-05T10:38:16.858Z,25.40
2019-02-05T10:40:47.965Z,29.02
2019-02-05T10:43:18.079Z,32.33
2019-02-05T10:45:48.664Z,35.13
2019-02-05T10:48:18.756Z,26.68
2019-02-05T10:50:48.965Z,31.25
2019-02-05T10:53:19.031Z,27.22
2019-02-05T10:55:49.140Z,27.80
2019-02-05T10:58:19.239Z,28.83
2019-02-05T11:00:49.781Z,30.05
2019-02-05T11:03:20.063Z,25.57
2019-02-05T11:05:50.075Z,24.82
2019-02-05T11:08:20.216Z,19.00
2019-02-05T11:10:50.247Z,17.05
2019-02-05T11:13:20.358Z,15.53
2019-02-05T11:15:51.069Z,17.10
2019-02-05T11:18:21.161Z,18.30
2019-02-05T11:20:51.196Z,19.77
2019-02-05T11:23:21.281Z,20.32
2019-02-05T11:25:51.297Z,28.87
2019-02-05T11:28:21.399Z,39.88
2019-02-05T11:30:51.919Z,34.00
2019-02-05T11:33:22.687Z,46.83
2019-02-05T11:35:52.708Z,43.23
2019-02-05T11:38:22.832Z,38.80
2019-02-05T11:40:52.857Z,69.12
2019-02-05T11:43:22.982Z,61.13
2019-02-05T11:45:53.101Z,44.60
2019-02-05T11:48:23.516Z,53.02
2019-02-05T11:50:53.620Z,12.05
2019-02-05T11:53:23.635Z,11.03
2019-02-05T11:55:53.926Z,14.33
2019-02-05T11:58:23.950Z,25.97
2019-02-05T12:00:55.709Z,39.63
2019-02-05T12:03:25.730Z,33.45
2019-02-05T12:05:55.922Z,17.70
2019-02-05T12:08:26.235Z,15.70
2019-02-05T12:10:56.443Z,13.53
2019-02-05T12:13:26.486Z,13.80
2019-02-05T12:15:56.699Z,12.40
2019-02-05T12:18:26.939Z,12.55
2019-02-05T12:20:57.060Z,13.03
2019-02-05T12:23:27.295Z,12.00
2019-02-05T12:25:57.590Z,11.17
2019-02-05T12:28:27.613Z,12.37
2019-02-05T12:30:57.910Z,11.97
2019-02-05T12:33:28.507Z,11.87
2019-02-05T12:35:58.630Z,12.40
2019-02-05T12:38:28.725Z,14.03
2019-02-05T12:40:58.917Z,15.03
2019-02-05T12:43:28.961Z,13.40
2019-02-05T12:45:59.067Z,13.90
2019-02-05T12:48:29.358Z,13.97
2019-02-05T12:50:59.479Z,14.63
2019-02-05T12:53:29.680Z,14.87
2019-02-05T12:55:59.638Z,13.20
2019-02-05T12:58:29.744Z,13.70
2019-02-05T13:01:01.577Z,13.40
2019-02-05T13:03:31.961Z,13.77
2019-02-05T13:06:02.008Z,13.80
2019-02-05T13:08:33.884Z,15.07
2019-02-05T13:11:09.254Z,14.63
2019-02-05T13:13:40.932Z,14.90
2019-02-05T13:16:10.873Z,13.20
2019-02-05T13:18:41.056Z,13.27
2019-02-05T13:21:11.086Z,13.77
2019-02-05T13:23:41.178Z,13.03
2019-02-05T13:26:12.318Z,13.93
2019-02-05T13:28:43.319Z,13.17
2019-02-05T13:31:13.397Z,13.50
2019-02-05T13:33:44.411Z,13.00
2019-02-05T13:36:22.786Z,12.10
2019-02-05T13:38:53.191Z,12.33
2019-02-05T13:41:28.943Z,12.33
2019-02-05T13:43:57.736Z,13.67
2019-02-05T13:46:27.745Z,12.60
2019-02-05T13:48:57.840Z,11.93
2019-02-05T13:51:27.861Z,15.57
2019-02-05T13:53:58.154Z,16.40
2019-02-05T13:56:28.189Z,16.20
2019-02-05T13:59:01.763Z,13.60
2019-02-05T14:01:31.799Z,14.83
2019-02-05T14:04:01.821Z,16.43
2019-02-05T14:06:46.348Z,15.33
2019-02-05T14:09:18.086Z,16.40
2019-02-05T14:11:48.184Z,16.67
2019-02-05T14:14:18.205Z,17.23
2019-02-05T14:16:54.609Z,18.03
2019-02-05T14:19:27.730Z,16.93
2019-02-05T14:21:57.753Z,16.10
2019-02-05T14:24:29.284Z,15.80
2019-02-05T14:26:59.212Z,17.17
2019-02-05T14:29:29.228Z,17.40
2019-02-05T14:32:11.918Z,19.73
2019-02-05T14:34:51.279Z,19.03
2019-02-05T14:37:21.310Z,17.33
2019-02-05T14:39:53.259Z,17.07
2019-02-05T14:42:25.706Z,16.67
2019-02-05T14:45:09.825Z,17.87
2019-02-05T14:47:52.746Z,16.10
2019-02-05T14:53:29.402Z,17.07
2019-02-05T14:56:02.042Z,15.80
2019-02-05T14:58:32.225Z,16.20
2019-02-05T15:01:02.335Z,14.77
2019-02-05T15:03:32.349Z,16.73
2019-02-05T15:06:09.262Z,15.47
2019-02-05T15:08:39.502Z,16.50
2019-02-05T15:11:09.607Z,15.53
2019-02-05T15:13:39.641Z,14.00
2019-02-05T15:16:09.723Z,15.47
2019-02-05T15:19:05.205Z,15.20
2019-02-05T15:21:50.098Z,15.50
2019-02-05T15:27:21.075Z,15.43
2019-02-05T15:29:54.462Z,16.07
2019-02-05T15:32:42.663Z,16.20
2019-02-05T15:35:17.553Z,15.40
2019-02-05T15:37:48.756Z,15.47
2019-02-05T15:40:20.135Z,15.67
2019-02-05T15:42:53.161Z,16.37
2019-02-05T15:45:24.155Z,17.13
2019-02-05T15:47:54.240Z,16.43
2019-02-05T15:50:24.333Z,15.47
2019-02-05T15:52:54.440Z,15.87
2019-02-05T15:55:24.629Z,16.97
2019-02-05T15:57:54.696Z,18.20
2019-02-05T16:00:34.555Z,16.07
2019-02-05T16:03:21.899Z,18.13
2019-02-05T16:08:46.470Z,18.67
2019-02-05T16:11:19.774Z,17.33
2019-02-05T16:14:00.302Z,18.53
2019-02-05T16:16:44.898Z,19.33
2019-02-05T16:19:16.556Z,17.50
2019-02-05T16:21:46.591Z,17.57
2019-02-05T16:24:27.126Z,17.97
2019-02-05T16:27:18.602Z,17.17
2019-02-05T16:30:12.873Z,16.90
2019-02-05T16:33:11.781Z,17.60
2019-02-05T16:44:43.030Z,17.93
2019-02-05T16:47:14.299Z,18.33
2019-02-05T16:49:47.359Z,20.03
2019-02-05T16:52:17.456Z,18.93
2019-02-05T16:54:47.440Z,18.77
2019-02-05T16:57:17.525Z,18.20
2019-02-05T16:59:47.716Z,17.47
2019-02-05T17:02:28.382Z,16.90
2019-02-05T17:04:49.261Z,17.47
2019-02-05T17:07:19.281Z,16.60
2019-02-05T17:09:49.483Z,16.53
2019-02-05T17:12:19.574Z,16.63
2019-02-05T17:14:49.588Z,17.23
2019-02-05T17:17:21.466Z,16.90
2019-02-05T17:19:51.589Z,17.40
2019-02-05T17:22:21.573Z,16.17
2019-02-05T17:24:51.551Z,16.83
2019-02-05T17:27:21.471Z,19.53
2019-02-05T17:29:51.566Z,20.03
2019-02-05T17:32:21.788Z,21.77
2019-02-05T17:34:51.768Z,25.50
2019-02-05T17:37:21.690Z,22.23
2019-02-05T17:39:51.781Z,19.47
2019-02-05T17:42:21.907Z,21.07
2019-02-05T17:44:51.921Z,19.67
2019-02-05T17:47:22.013Z,17.80
2019-02-05T17:49:52.093Z,17.53
2019-02-05T17:52:22.013Z,15.67
2019-02-05T17:54:51.996Z,18.77
2019-02-05T17:57:22.016Z,16.83
2019-02-05T17:59:55.235Z,13.97
2019-02-05T18:02:25.333Z,12.97
2019-02-05T18:21:38.397Z,10.60
2019-02-05T18:24:08.643Z,9.83
2019-02-05T18:26:38.844Z,10.50
2019-02-05T18:57:20.599Z,8.93
2019-02-05T18:59:50.936Z,7.67
2019-02-05T19:02:25.747Z,8.13
2019-02-05T19:21:00.474Z,8.10
2019-02-05T19:36:38.497Z,10.47
2019-02-05T19:52:27.777Z,29.60
2019-02-05T19:55:03.639Z,33.77
2019-02-05T19:57:56.692Z,19.47
2019-02-05T20:03:41.244Z,16.50
2019-02-05T20:06:45.686Z,12.77
2019-02-05T20:58:22.306Z,11.37
2019-02-05T21:04:24.026Z,10.73
2019-02-05T21:10:03.731Z,9.27
2019-02-05T21:12:34.759Z,9.17
2019-02-05T21:15:09.227Z,7.97
2019-02-05T21:17:39.777Z,8.57
2019-02-05T21:20:38.787Z,9.13
2019-02-05T21:23:18.596Z,9.83
2019-02-05T21:26:11.021Z,10.67
2019-02-05T21:29:07.913Z,11.50
2019-02-05T21:37:48.715Z,11.33
2019-02-05T21:46:17.443Z,14.80
2019-02-05T21:48:50.402Z,13.90
2019-02-05T21:54:25.117Z,14.97
2019-02-05T21:56:55.473Z,14.03
2019-02-05T21:59:35.548Z,15.27
2019-02-05T22:02:07.062Z,14.50
2019-02-05T22:04:37.690Z,15.80
2019-02-05T22:07:07.948Z,15.40
2019-02-05T22:09:39.601Z,13.70
2019-02-05T22:12:10.243Z,13.43
2019-02-05T22:14:44.044Z,11.53
2019-02-05T22:17:47.813Z,11.83
2019-02-05T22:20:20.292Z,10.23
2019-02-05T22:22:50.623Z,9.23
2019-02-05T22:25:24.038Z,9.60
2019-02-05T22:27:54.278Z,10.70
2019-02-05T22:30:32.985Z,9.10
2019-02-05T22:33:03.159Z,11.57
2019-02-05T22:35:33.468Z,12.07
2019-02-05T22:38:03.767Z,14.13
2019-02-05T22:40:33.951Z,13.67
2019-02-05T22:43:05.147Z,12.97
2019-02-05T22:45:35.460Z,11.90
2019-02-05T22:48:07.233Z,12.43
2019-02-05T22:50:38.852Z,15.60
2019-02-05T22:53:10.699Z,15.17
2019-02-05T22:55:40.911Z,15.40
2019-02-05T22:58:11.409Z,15.03
2019-02-05T23:00:56.975Z,15.77
2019-02-05T23:03:29.922Z,15.97
2019-02-05T23:06:22.117Z,15.97
2019-02-05T23:08:55.094Z,15.60
2019-02-05T23:11:35.044Z,16.80
2019-02-05T23:14:05.946Z,17.07
2019-02-05T23:16:36.666Z,15.70
2019-02-05T23:19:07.806Z,16.50
2019-02-05T23:21:38.739Z,16.03
2019-02-05T23:24:09.048Z,15.97
2019-02-05T23:26:39.211Z,14.47
2019-02-05T23:29:09.425Z,13.33
2019-02-05T23:31:39.678Z,11.43
2019-02-05T23:34:09.889Z,10.63
2019-02-05T23:36:40.618Z,10.57
2019-02-05T23:39:11.941Z,10.20
2019-02-05T23:41:41.963Z,9.60
2019-02-05T23:44:11.935Z,10.87
2019-02-05T23:46:42.155Z,10.00
2019-02-05T23:49:12.292Z,11.87
2019-02-05T23:51:43.593Z,13.10
2019-02-05T23:54:13.793Z,12.20
2019-02-05T23:56:43.826Z,11.70
2019-02-05T23:59:14.761Z,9.20
